M I D A S
Marine Information and Data Acquisition System
Tripno 1781 of the Zeeleeuw from 2009-09-21 06:46:06 to 2009-09-21 15:45:26
Back to CruiseResearch ActivitiesStationsMapUnderway DataData graphs

EquipmentUnitsComments
TimeDGPSUTC
LatitudeDGPSDM.mWGS84
LongitudeDGPSDM.mWGS84
SpeedMeteo Stationm/sRelative wind speed
DirectionMeteo StationdegRelative wind direction
TemperatureMeteo Stationdeg CelciusAir temperature
PressureMeteo StationPaAtmospheric pressure
HumidityMeteo Station%Relative humidity
Missing or incorrect values are displayed as -999
Metereological data collected by the RV Zeeleeuw from 2009-09-21 06:50:00 to 2009-09-21 15:55:05
Time Latitude Longitude Speed Direction Temperature Pressure Humidity
2009-09-21 06:51 51°13.679 2°55.887 -999 24 14.6 102600 40
2009-09-21 06:52 51°13.693 2°55.794 -999 24 14.6 102600 42
2009-09-21 06:53 51°13.694 2°55.739 -999 44 14.6 102600 42
2009-09-21 06:54 51°13.709 2°55.743 -999 24 14.7 102600 42
2009-09-21 06:55 51°13.707 2°55.737 -999 265 14.7 102600 42
2009-09-21 06:56 51°13.758 2°55.69 -999 24 14.8 102600 42
2009-09-21 06:57 51°13.829 2°55.634 -999 24 14.8 102600 42
2009-09-21 06:58 51°13.886 2°55.625 -999 24 14.8 102600 42
2009-09-21 06:59 51°13.926 2°55.635 -999 34 14.9 102600 42
2009-09-21 07:00 51°13.954 2°55.633 -999 24 14.9 102600 42
2009-09-21 07:01 51°13.953 2°55.635 -999 24 15 102590 42
2009-09-21 07:02 51°13.95 2°55.636 -999 24 15 102600 42
2009-09-21 07:03 51°13.949 2°55.636 -999 24 15 102590 42
2009-09-21 07:04 51°13.993 2°55.592 -999 24 15.1 102590 42
2009-09-21 07:05 51°14.096 2°55.471 -999 327 15.1 102590 42
2009-09-21 07:06 51°14.222 2°55.308 2.8 328 15.2 102590 43
2009-09-21 07:07 51°14.337 2°55.103 3.4 326 15.2 102590 44
2009-09-21 07:08 51°14.465 2°54.893 3.5 325 15.2 102590 41
2009-09-21 07:09 51°14.621 2°54.717 3.7 322 15.3 102590 40
2009-09-21 07:10 51°14.777 2°54.547 3.5 325 15.4 102580 44
2009-09-21 07:11 51°14.937 2°54.395 3.2 322 15.5 102590 40
2009-09-21 07:12 51°15.096 2°54.249 3.5 321 15.5 102590 39
2009-09-21 07:13 51°15.258 2°54.097 3.4 321 15.6 102580 41
2009-09-21 07:14 51°15.42 2°53.944 3.7 319 15.7 102580 40
2009-09-21 07:15 51°15.582 2°53.789 3.7 317 15.7 102590 43
2009-09-21 07:16 51°15.747 2°53.633 4 317 15.8 102590 40
2009-09-21 07:17 51°15.912 2°53.478 3.9 318 15.8 102590 40
2009-09-21 07:18 51°16.079 2°53.325 3.6 317 15.7 102590 44
2009-09-21 07:19 51°16.245 2°53.17 3.8 317 15.7 102590 44
2009-09-21 07:20 51°16.41 2°53.018 3.1 321 15.7 102590 44
2009-09-21 07:21 51°16.575 2°52.87 3 317 15.7 102590 43
2009-09-21 07:22 51°16.743 2°52.734 2.6 319 15.8 102590 41
2009-09-21 07:23 51°16.91 2°52.612 2.9 325 15.8 102590 40
2009-09-21 07:24 51°17.08 2°52.506 2.7 319 15.8 102600 40
2009-09-21 07:25 51°17.25 2°52.399 -999 323 15.8 102600 42
2009-09-21 07:26 51°17.421 2°52.29 0.1 320 15.9 102600 44
2009-09-21 07:27 51°17.593 2°52.178 1.1 315 15.9 102600 42
2009-09-21 07:28 51°17.763 2°52.069 2.7 317 15.9 102600 41
2009-09-21 07:29 51°17.934 2°51.958 3.3 27 15.9 102600 42
2009-09-21 07:30 51°18.105 2°51.846 2.7 318 15.9 102600 41
2009-09-21 07:31 51°18.279 2°51.732 2.9 315 16 102590 41
2009-09-21 07:32 51°18.452 2°51.616 3 319 16 102590 40
2009-09-21 07:33 51°18.626 2°51.498 3.4 318 16 102590 41
2009-09-21 07:34 51°18.798 2°51.38 3 316 16 102590 41
2009-09-21 07:35 51°18.97 2°51.261 3.2 27 16 102590 44
2009-09-21 07:36 51°19.144 2°51.141 3.4 27 16.1 102590 44
2009-09-21 07:37 51°19.316 2°51.018 3.2 20 16 102600 44
2009-09-21 07:38 51°19.491 2°50.901 3.3 28 16.1 102600 42
2009-09-21 07:39 51°19.666 2°50.782 3.4 27 16.1 102600 40
2009-09-21 07:40 51°19.836 2°50.652 3.9 21 16 102600 44
2009-09-21 07:41 51°20.008 2°50.523 3.8 20 16.1 102600 44
2009-09-21 07:42 51°20.183 2°50.396 3.7 29 16.2 102600 40
2009-09-21 07:43 51°20.358 2°50.27 3.9 21 16.2 102590 44
2009-09-21 07:44 51°20.53 2°50.144 3.4 22 16.1 102590 44
2009-09-21 07:45 51°20.701 2°50.022 3.2 22 16.2 102590 40
2009-09-21 07:46 51°20.872 2°49.901 3.9 27 16.2 102590 44
2009-09-21 07:47 51°21.045 2°49.776 3.3 29 16.2 102590 44
2009-09-21 07:48 51°21.219 2°49.652 3.6 21 16.2 102590 40
2009-09-21 07:49 51°21.394 2°49.525 3.4 19 16.2 102590 44
2009-09-21 07:50 51°21.568 2°49.39 3.5 24 16.2 102590 44
2009-09-21 07:51 51°21.744 2°49.256 3.8 21 16.2 102590 44
2009-09-21 07:52 51°21.921 2°49.125 3.5 22 16.2 102590 44
2009-09-21 07:53 51°22.1 2°48.996 4.2 22 16.2 102590 44
2009-09-21 07:54 51°22.28 2°48.868 2.9 28 16.2 102580 44
2009-09-21 07:55 51°22.46 2°48.741 3.8 25 16.3 102580 41
2009-09-21 07:56 51°22.633 2°48.623 4.1 22 16.3 102580 41
2009-09-21 07:57 51°22.806 2°48.506 3.1 28 16.3 102580 42
2009-09-21 07:58 51°22.979 2°48.389 1.3 28 16.3 102580 40
2009-09-21 07:59 51°23.154 2°48.274 3.4 27 16.3 102580 44
2009-09-21 08:00 51°23.325 2°48.147 3.1 20 16.3 102580 44
2009-09-21 08:01 51°23.497 2°48.018 3.1 27 16.3 102570 44
2009-09-21 08:02 51°23.671 2°47.892 4.5 26 16.3 102570 40
2009-09-21 08:03 51°23.844 2°47.763 3.7 21 16.3 102570 43
2009-09-21 08:04 51°24.018 2°47.637 3.9 26 16.4 102570 42
2009-09-21 08:05 51°24.191 2°47.51 3.4 21 16.4 102570 44
2009-09-21 08:06 51°24.363 2°47.381 4 26 16.4 102570 41
2009-09-21 08:07 51°24.536 2°47.253 4.1 21 16.3 102570 44
2009-09-21 08:08 51°24.707 2°47.123 4.5 22 16.3 102580 40
2009-09-21 08:09 51°24.878 2°46.991 4.8 21 16.4 102580 40
2009-09-21 08:10 51°25.047 2°46.862 4.2 24 16.4 102580 40
2009-09-21 08:11 51°25.216 2°46.735 5 243 16.4 102580 44
2009-09-21 08:12 51°25.385 2°46.608 4.8 244 16.4 102580 44
2009-09-21 08:13 51°25.554 2°46.48 4.4 19 16.4 102590 41
2009-09-21 08:14 51°25.721 2°46.35 4.9 22 16.4 102590 43
2009-09-21 08:15 51°25.889 2°46.223 3.8 25 16.4 102590 44
2009-09-21 08:16 51°26.058 2°46.1 4.5 22 16.4 102600 40
2009-09-21 08:17 51°26.227 2°45.975 5.3 21 16.4 102590 44
2009-09-21 08:18 51°26.398 2°45.851 5 26 16.4 102590 44
2009-09-21 08:19 51°26.567 2°45.728 5.1 21 16.5 102590 40
2009-09-21 08:20 51°26.733 2°45.601 4.2 27 16.5 102590 42
2009-09-21 08:21 51°26.902 2°45.469 5 23 16.5 102600 40
2009-09-21 08:22 51°27.065 2°45.339 5.3 28 16.4 102590 41
2009-09-21 08:23 51°27.231 2°45.21 5.1 28 16.4 102590 42
2009-09-21 08:24 51°27.396 2°45.075 4.9 245 16.4 102580 44
2009-09-21 08:25 51°27.561 2°44.938 5.4 23 16.4 102590 44
2009-09-21 08:26 51°27.729 2°44.808 4.6 20 16.5 102580 40
2009-09-21 08:27 51°27.898 2°44.679 5 26 16.5 102580 44
2009-09-21 08:28 51°28.068 2°44.548 4.5 25 16.5 102580 44
2009-09-21 08:29 51°28.239 2°44.418 4.4 24 16.5 102580 44
2009-09-21 08:30 51°28.408 2°44.283 3.8 27 16.6 102580 42
2009-09-21 08:31 51°28.579 2°44.159 4.8 28 16.6 102580 44
2009-09-21 08:32 51°28.749 2°44.041 3.9 23 16.4 102570 43
2009-09-21 08:33 51°28.914 2°43.925 4.6 21 16.4 102570 43
2009-09-21 08:34 51°29.077 2°43.806 4.5 25 16.4 102570 42
2009-09-21 08:35 51°29.243 2°43.714 3.2 28 16.4 102580 40
2009-09-21 08:36 51°29.409 2°43.701 2.7 22 16.4 102580 41
2009-09-21 08:37 51°29.575 2°43.695 2.9 23 16.5 102580 42
2009-09-21 08:38 51°29.739 2°43.712 2.3 26 16.6 102580 42
2009-09-21 08:39 51°29.903 2°43.745 2.1 29 16.6 102580 42
2009-09-21 08:40 51°30.061 2°43.804 1.1 324 16.6 102580 40
2009-09-21 08:41 51°30.217 2°43.877 -999 325 16.6 102590 38
2009-09-21 08:42 51°30.369 2°43.971 0.8 323 16.6 102580 39
2009-09-21 08:43 51°30.519 2°44.061 0.8 323 16.6 102590 39
2009-09-21 08:44 51°30.669 2°44.149 0.9 322 16.7 102580 42
2009-09-21 08:45 51°30.821 2°44.234 1.7 322 16.7 102580 40
2009-09-21 08:46 51°30.972 2°44.316 1 20 16.8 102580 40
2009-09-21 08:47 51°31.125 2°44.401 0.2 316 16.8 102580 39
2009-09-21 08:48 51°31.276 2°44.481 -999 24 16.9 102570 40
2009-09-21 08:49 51°31.43 2°44.56 1.9 22 17 102570 41
2009-09-21 08:50 51°31.601 2°44.655 0.9 323 16.9 102580 41
2009-09-21 08:51 51°31.753 2°44.734 1.6 27 17 102570 40
2009-09-21 08:52 51°31.905 2°44.812 0.2 23 17 102580 41
2009-09-21 08:53 51°32.057 2°44.892 -999 252 17 102580 40
2009-09-21 08:54 51°32.209 2°44.976 1.3 21 17 102580 41
2009-09-21 08:55 51°32.363 2°45.066 1.4 21 17 102580 39
2009-09-21 08:56 51°32.511 2°45.156 1 21 17 102590 39
2009-09-21 08:57 51°32.662 2°45.244 2.2 22 17 102590 37
2009-09-21 08:58 51°32.815 2°45.326 2.2 25 17 102600 41
2009-09-21 08:59 51°32.969 2°45.406 2.3 21 17 102600 41
2009-09-21 09:00 51°33.123 2°45.487 1.4 22 17 102600 42
2009-09-21 09:01 51°33.277 2°45.565 1.7 23 16.9 102610 40
2009-09-21 09:02 51°33.43 2°45.645 2.3 25 16.9 102610 40
2009-09-21 09:03 51°33.583 2°45.723 2 26 17 102610 38
2009-09-21 09:04 51°33.735 2°45.803 3.4 24 17.1 102610 38
2009-09-21 09:05 51°33.885 2°45.891 2.6 22 17.1 102620 37
2009-09-21 09:06 51°34.034 2°45.989 2.6 22 17 102620 40
2009-09-21 09:07 51°34.18 2°46.075 2.1 243 17 102620 40
2009-09-21 09:08 51°34.328 2°46.162 1.6 22 17 102620 38
2009-09-21 09:09 51°34.474 2°46.257 1.6 25 17 102630 40
2009-09-21 09:10 51°34.62 2°46.347 2.3 23 17 102630 41
2009-09-21 09:11 51°34.77 2°46.436 2.2 27 17.1 102630 38
2009-09-21 09:12 51°34.913 2°46.525 3.1 244 17.1 102630 37
2009-09-21 09:13 51°35.059 2°46.614 2.6 26 17.1 102640 38
2009-09-21 09:14 51°35.205 2°46.695 2.6 29 17.1 102640 41
2009-09-21 09:15 51°35.352 2°46.775 2.8 21 17.1 102640 39
2009-09-21 09:16 51°35.499 2°46.857 2.2 27 17.1 102640 40
2009-09-21 09:17 51°35.645 2°46.942 3.4 22 17.1 102630 37
2009-09-21 09:18 51°35.794 2°47.032 2.9 244 17.1 102640 41
2009-09-21 09:19 51°35.935 2°47.122 2.9 22 17.1 102640 37
2009-09-21 09:20 51°36.08 2°47.21 2.1 20 17.1 102640 37
2009-09-21 09:21 51°36.221 2°47.291 -999 24 17.1 102640 36
2009-09-21 09:22 51°36.365 2°47.378 2.2 21 17.2 102630 37
2009-09-21 09:23 51°36.506 2°47.462 2.2 20 17.3 102630 37
2009-09-21 09:24 51°36.647 2°47.558 1.4 23 17.3 102630 37
2009-09-21 09:25 51°36.787 2°47.657 2.4 320 17.3 102630 40
2009-09-21 09:26 51°36.928 2°47.754 3 253 17.3 102630 41
2009-09-21 09:27 51°37.074 2°47.845 3 22 17.4 102630 41
2009-09-21 09:28 51°37.213 2°47.94 -999 24 17.4 102630 38
2009-09-21 09:29 51°37.352 2°48.053 -999 248 17.4 102620 38
2009-09-21 09:30 51°37.484 2°48.168 2.1 245 17.4 102620 42
2009-09-21 09:31 51°37.622 2°48.287 2.4 245 17.4 102620 38
2009-09-21 09:32 51°37.756 2°48.402 1.9 243 17.4 102620 37
2009-09-21 09:33 51°37.892 2°48.522 1.4 28 17.4 102620 40
2009-09-21 09:34 51°38.026 2°48.638 1.3 246 17.5 102620 38
2009-09-21 09:35 51°38.164 2°48.752 1 244 17.5 102620 39
2009-09-21 09:36 51°38.306 2°48.863 0.5 242 17.5 102620 39
2009-09-21 09:37 51°38.443 2°48.972 1.5 20 17.5 102620 37
2009-09-21 09:38 51°38.585 2°49.086 1.3 20 17.6 102620 41
2009-09-21 09:39 51°38.724 2°49.194 2.2 22 17.7 102620 41
2009-09-21 09:40 51°38.865 2°49.313 2 22 17.6 102620 40
2009-09-21 09:41 51°39.005 2°49.422 1.9 247 17.6 102610 38
2009-09-21 09:42 51°39.147 2°49.53 1.3 250 17.6 102610 40
2009-09-21 09:43 51°39.288 2°49.632 1.2 21 17.6 102600 41
2009-09-21 09:44 51°39.434 2°49.728 2.5 251 17.7 102600 37
2009-09-21 09:45 51°39.582 2°49.816 1.9 253 17.7 102610 38
2009-09-21 09:46 51°39.732 2°49.898 3.4 252 17.7 102600 38
2009-09-21 09:47 51°39.886 2°49.975 2.8 26 17.6 102610 38
2009-09-21 09:48 51°40.032 2°50.056 2.7 254 17.6 102610 39
2009-09-21 09:49 51°40.184 2°50.139 1.9 28 17.6 102600 39
2009-09-21 09:50 51°40.333 2°50.222 2.5 252 17.7 102600 42
2009-09-21 09:51 51°40.479 2°50.304 2.2 22 17.7 102600 41
2009-09-21 09:52 51°40.631 2°50.392 2.9 251 17.7 102600 41
2009-09-21 09:53 51°40.78 2°50.473 3.5 251 17.6 102600 37
2009-09-21 09:54 51°40.93 2°50.551 2.5 259 17.6 102600 38
2009-09-21 09:55 51°41.078 2°50.639 1 260 17.6 102600 41
2009-09-21 09:56 51°41.234 2°50.683 3.5 22 17.6 102600 41
2009-09-21 09:57 51°41.391 2°50.622 5.3 24 17.6 102600 39
2009-09-21 09:58 51°41.551 2°50.522 7.8 244 17.6 102610 39
2009-09-21 09:59 51°41.7 2°50.404 7.4 29 17.5 102610 39
2009-09-21 10:00 51°41.847 2°50.256 6.8 22 17.4 102610 39
2009-09-21 10:01 51°41.995 2°50.111 7.2 20 17.4 102610 40
2009-09-21 10:02 51°42.141 2°49.957 7.7 23 17.4 102610 39
2009-09-21 10:03 51°42.284 2°49.783 8.3 24 17.3 102610 39
2009-09-21 10:04 51°42.425 2°49.617 8.3 25 17.3 102610 41
2009-09-21 10:05 51°42.561 2°49.434 8.8 23 17.2 102620 40
2009-09-21 10:06 51°42.679 2°49.199 10 21 17.2 102620 39
2009-09-21 10:07 51°42.767 2°48.933 9.5 27 17.2 102610 40
2009-09-21 10:08 51°42.855 2°48.66 8.8 28 17.1 102600 39
2009-09-21 10:09 51°42.933 2°48.378 10.8 25 17.1 102600 39
2009-09-21 10:10 51°42.91 2°48.062 12.2 325 17.1 102600 39
2009-09-21 10:11 51°42.784 2°47.788 10.5 332 17.2 102610 41
2009-09-21 10:12 51°42.635 2°47.535 11.3 334 17.1 102600 40
2009-09-21 10:13 51°42.473 2°47.301 11.2 337 17.2 102610 40
2009-09-21 10:14 51°42.281 2°47.139 11.1 337 17.2 102600 42
2009-09-21 10:15 51°42.083 2°47.008 12.6 338 17.1 102600 40
2009-09-21 10:16 51°41.886 2°46.868 11.4 340 17.1 102600 41
2009-09-21 10:17 51°41.693 2°46.725 10.9 337 17.1 102610 39
2009-09-21 10:18 51°41.497 2°46.578 10.8 340 17.1 102600 39
2009-09-21 10:19 51°41.293 2°46.459 10.7 340 17.2 102600 40
2009-09-21 10:20 51°41.093 2°46.355 12.5 340 17.1 102600 40
2009-09-21 10:21 51°40.89 2°46.247 11.5 340 17.1 102600 39
2009-09-21 10:22 51°40.683 2°46.135 11.7 338 17.1 102590 41
2009-09-21 10:23 51°40.481 2°46.026 10 338 17.1 102590 39
2009-09-21 10:24 51°40.278 2°45.91 10.7 339 17.1 102590 40
2009-09-21 10:25 51°40.074 2°45.8 12.1 338 17.1 102590 40
2009-09-21 10:26 51°39.871 2°45.693 10.5 337 17.1 102600 40
2009-09-21 10:27 51°39.67 2°45.58 11.3 337 17.1 102600 41
2009-09-21 10:28 51°39.47 2°45.467 9.9 336 17.1 102600 40
2009-09-21 10:29 51°39.265 2°45.365 11.2 340 17.1 102600 41
2009-09-21 10:30 51°39.061 2°45.262 10.3 340 17.1 102580 41
2009-09-21 10:31 51°38.851 2°45.16 10.3 339 17.1 102590 41
2009-09-21 10:32 51°38.646 2°45.081 11.6 341 17.2 102580 40
2009-09-21 10:33 51°38.433 2°45.013 11.6 339 17.1 102590 40
2009-09-21 10:34 51°38.227 2°44.946 11.8 341 17.1 102590 41
2009-09-21 10:35 51°38.014 2°44.875 9.8 340 17.1 102590 40
2009-09-21 10:36 51°37.808 2°44.803 11.6 340 17.1 102580 41
2009-09-21 10:37 51°37.596 2°44.719 10.7 338 17.1 102590 40
2009-09-21 10:38 51°37.393 2°44.639 11.5 338 17.1 102580 41
2009-09-21 10:39 51°37.185 2°44.553 10.8 338 17.1 102580 40
2009-09-21 10:40 51°36.974 2°44.464 10.7 339 17.1 102580 41
2009-09-21 10:41 51°36.767 2°44.379 11.2 340 17.1 102580 39
2009-09-21 10:42 51°36.561 2°44.283 12 339 17.2 102580 41
2009-09-21 10:43 51°36.359 2°44.188 11.6 340 17.2 102580 40
2009-09-21 10:44 51°36.151 2°44.087 11.4 338 17.1 102580 41
2009-09-21 10:45 51°35.95 2°43.988 11.8 340 17.2 102580 41
2009-09-21 10:46 51°35.743 2°43.885 10.6 339 17.2 102590 41
2009-09-21 10:47 51°35.542 2°43.79 11.8 337 17.2 102590 41
2009-09-21 10:48 51°35.337 2°43.686 11.4 336 17.2 102580 41
2009-09-21 10:49 51°35.136 2°43.577 11.5 336 17.2 102590 40
2009-09-21 10:50 51°34.936 2°43.469 11.5 337 17.2 102590 41
2009-09-21 10:51 51°34.741 2°43.341 11.5 337 17.2 102580 40
2009-09-21 10:52 51°34.529 2°43.199 11.4 334 17.2 102580 41
2009-09-21 10:53 51°34.265 2°43.022 11.1 338 17.1 102580 40
2009-09-21 10:54 51°34.067 2°42.889 10.4 339 17.2 102580 40
2009-09-21 10:55 51°33.872 2°42.757 11 335 17.2 102590 42
2009-09-21 10:56 51°33.675 2°42.626 12.3 334 17.3 102590 42
2009-09-21 10:57 51°33.478 2°42.496 11.5 336 17.2 102590 43
2009-09-21 10:58 51°33.281 2°42.362 10.9 337 17.2 102590 43
2009-09-21 10:59 51°33.083 2°42.226 10.9 340 17.2 102590 43
2009-09-21 11:00 51°32.899 2°42.06 11.7 334 17.2 102590 42
2009-09-21 11:01 51°32.742 2°41.83 12 331 17.1 102600 41
2009-09-21 11:02 51°32.594 2°41.585 11.1 330 17.1 102580 40
2009-09-21 11:03 51°32.477 2°41.307 11.8 323 17.1 102590 42
2009-09-21 11:04 51°32.377 2°41.012 12 323 17.2 102590 42
2009-09-21 11:05 51°32.301 2°40.715 11.1 35 17.2 102590 43
2009-09-21 11:06 51°32.328 2°40.414 8.6 38 17.2 102590 42
2009-09-21 11:07 51°32.402 2°40.136 8.8 235 17.2 102590 42
2009-09-21 11:08 51°32.533 2°39.99 4.3 246 17.2 102600 43
2009-09-21 11:09 51°32.684 2°40.037 1.9 249 17.3 102610 42
2009-09-21 11:10 51°32.83 2°40.13 3.5 249 17.3 102610 43
2009-09-21 11:11 51°32.976 2°40.226 3.9 255 17.4 102610 44
2009-09-21 11:12 51°33.131 2°40.283 3.5 252 17.4 102610 40
2009-09-21 11:13 51°33.289 2°40.328 3 252 17.4 102610 41
2009-09-21 11:14 51°33.445 2°40.385 3.5 255 17.4 102620 40
2009-09-21 11:15 51°33.601 2°40.446 3.6 250 17.5 102610 41
2009-09-21 11:16 51°33.757 2°40.503 2.2 255 17.5 102610 41
2009-09-21 11:17 51°33.913 2°40.563 1.5 248 17.5 102610 40
2009-09-21 11:18 51°34.068 2°40.635 3 248 17.6 102610 41
2009-09-21 11:19 51°34.222 2°40.709 3.1 248 17.7 102610 40
2009-09-21 11:20 51°34.377 2°40.785 4.4 241 17.6 102610 40
2009-09-21 11:21 51°34.533 2°40.858 3.4 249 17.6 102610 39
2009-09-21 11:22 51°34.69 2°40.927 3.3 233 17.7 102610 40
2009-09-21 11:23 51°34.846 2°40.997 2.9 245 17.7 102610 39
2009-09-21 11:24 51°35.003 2°41.072 3 242 17.7 102600 42
2009-09-21 11:25 51°35.159 2°41.15 3.2 245 17.7 102610 39
2009-09-21 11:26 51°35.315 2°41.229 2.3 251 17.7 102610 40
2009-09-21 11:27 51°35.47 2°41.319 0.5 239 17.7 102600 40
2009-09-21 11:28 51°35.625 2°41.416 3.4 244 17.7 102610 43
2009-09-21 11:29 51°35.783 2°41.512 3.8 244 17.7 102600 40
2009-09-21 11:30 51°35.94 2°41.604 3.4 242 17.7 102610 43
2009-09-21 11:31 51°36.099 2°41.698 2.3 243 17.7 102610 43
2009-09-21 11:32 51°36.257 2°41.795 3 240 17.7 102610 43
2009-09-21 11:33 51°36.415 2°41.888 3.2 235 17.7 102610 39
2009-09-21 11:34 51°36.573 2°41.984 4 242 17.7 102610 42
2009-09-21 11:35 51°36.731 2°42.077 3.4 256 17.7 102610 42
2009-09-21 11:36 51°36.89 2°42.168 3.5 238 17.7 102610 41
2009-09-21 11:37 51°37.047 2°42.253 4.2 246 17.8 102600 43
2009-09-21 11:38 51°37.204 2°42.339 3.7 241 17.8 102610 43
2009-09-21 11:39 51°37.36 2°42.427 3.6 249 17.8 102610 40
2009-09-21 11:40 51°37.516 2°42.517 4.1 244 17.8 102600 40
2009-09-21 11:41 51°37.673 2°42.604 2.7 261 17.7 102610 39
2009-09-21 11:42 51°37.83 2°42.699 2.9 245 17.8 102610 40
2009-09-21 11:43 51°37.988 2°42.788 3.5 250 17.8 102610 40
2009-09-21 11:44 51°38.146 2°42.878 3 251 17.8 102600 40
2009-09-21 11:45 51°38.304 2°42.969 3.2 251 17.8 102600 44
2009-09-21 11:46 51°38.463 2°43.059 4.2 253 17.8 102590 43
2009-09-21 11:47 51°38.623 2°43.142 3.7 254 17.8 102600 39
2009-09-21 11:48 51°38.783 2°43.231 2.7 249 17.7 102590 39
2009-09-21 11:49 51°38.944 2°43.32 2.9 257 17.7 102590 39
2009-09-21 11:50 51°39.104 2°43.41 3.2 246 17.7 102590 39
2009-09-21 11:51 51°39.265 2°43.5 3.4 255 17.8 102590 43
2009-09-21 11:52 51°39.426 2°43.584 2.7 254 17.7 102590 40
2009-09-21 11:53 51°39.585 2°43.676 1.8 263 17.7 102600 43
2009-09-21 11:54 51°39.754 2°43.771 3.6 247 17.7 102590 39
2009-09-21 11:55 51°39.92 2°43.862 3.4 252 17.7 102590 40
2009-09-21 11:56 51°40.084 2°43.952 3 249 17.7 102590 39
2009-09-21 11:57 51°40.248 2°44.043 2.7 254 17.7 102590 43
2009-09-21 11:58 51°40.412 2°44.135 3.3 248 17.7 102590 43
2009-09-21 11:59 51°40.578 2°44.205 3.4 20 17.7 102590 43
2009-09-21 12:00 51°40.752 2°44.237 4.5 245 17.7 102580 43
2009-09-21 12:01 51°40.926 2°44.265 4.3 249 17.8 102580 43
2009-09-21 12:02 51°41.099 2°44.303 4.7 251 17.8 102590 42
2009-09-21 12:03 51°41.273 2°44.331 4.8 248 17.8 102590 41
2009-09-21 12:04 51°41.447 2°44.367 4.4 27 17.8 102580 41
2009-09-21 12:05 51°41.622 2°44.403 4.2 22 17.8 102580 43
2009-09-21 12:06 51°41.795 2°44.438 4.9 23 17.8 102580 40
2009-09-21 12:07 51°41.967 2°44.478 3.9 250 17.8 102580 43
2009-09-21 12:08 51°42.142 2°44.519 3.8 22 17.8 102580 42
2009-09-21 12:09 51°42.317 2°44.559 4.6 247 17.8 102580 40
2009-09-21 12:10 51°42.491 2°44.598 4.9 245 17.8 102580 43
2009-09-21 12:11 51°42.665 2°44.638 5.3 27 17.8 102580 44
2009-09-21 12:12 51°42.84 2°44.661 6.4 22 17.8 102580 41
2009-09-21 12:13 51°43.011 2°44.597 6.3 25 17.7 102580 43
2009-09-21 12:14 51°43.17 2°44.477 7.2 21 17.6 102570 43
2009-09-21 12:15 51°43.315 2°44.316 9.4 22 17.6 102570 40
2009-09-21 12:16 51°43.39 2°44.069 11.3 316 17.5 102560 42
2009-09-21 12:17 51°43.366 2°43.789 12.3 330 17.4 102560 42
2009-09-21 12:18 51°43.234 2°43.584 12.8 335 17.4 102560 42
2009-09-21 12:19 51°43.051 2°43.496 11.4 339 17.3 102550 41
2009-09-21 12:20 51°42.867 2°43.396 11.6 336 17.3 102550 42
2009-09-21 12:21 51°42.689 2°43.277 12.2 338 17.3 102550 42
2009-09-21 12:22 51°42.509 2°43.162 12.6 338 17.2 102550 42
2009-09-21 12:23 51°42.327 2°43.053 11.6 342 17.3 102550 42
2009-09-21 12:24 51°42.14 2°42.965 12 339 17.3 102560 43
2009-09-21 12:25 51°41.953 2°42.884 11.5 339 17.3 102560 42
2009-09-21 12:26 51°41.769 2°42.792 11.9 338 17.3 102570 42
2009-09-21 12:27 51°41.585 2°42.697 11.8 340 17.2 102550 43
2009-09-21 12:28 51°41.401 2°42.598 11.8 337 17.2 102560 42
2009-09-21 12:29 51°41.218 2°42.504 12.2 340 17.2 102550 41
2009-09-21 12:30 51°41.035 2°42.413 12 339 17.2 102550 41
2009-09-21 12:31 51°40.853 2°42.321 10.9 340 17.2 102550 41
2009-09-21 12:32 51°40.671 2°42.224 11.4 338 17.3 102560 42
2009-09-21 12:33 51°40.489 2°42.132 11.5 340 17.2 102560 41
2009-09-21 12:34 51°40.308 2°42.044 11.2 339 17.2 102550 41
2009-09-21 12:35 51°40.128 2°41.957 11.1 341 17.3 102560 42
2009-09-21 12:36 51°39.948 2°41.866 11.1 337 17.3 102560 41
2009-09-21 12:37 51°39.769 2°41.767 11.2 339 17.4 102560 42
2009-09-21 12:38 51°39.591 2°41.675 10.4 339 17.3 102570 43
2009-09-21 12:39 51°39.412 2°41.585 12.1 339 17.2 102560 42
2009-09-21 12:40 51°39.234 2°41.491 10.9 339 17.3 102570 41
2009-09-21 12:41 51°39.057 2°41.405 10.8 338 17.3 102570 42
2009-09-21 12:42 51°38.881 2°41.322 11.5 336 17.3 102560 43
2009-09-21 12:43 51°38.704 2°41.233 12.4 338 17.2 102570 41
2009-09-21 12:44 51°38.528 2°41.144 10.5 337 17.2 102560 41
2009-09-21 12:45 51°38.354 2°41.054 11.5 337 17.3 102560 41
2009-09-21 12:46 51°38.181 2°40.963 12.3 335 17.3 102560 41
2009-09-21 12:47 51°38.012 2°40.858 12.2 338 17.2 102560 41
2009-09-21 12:48 51°37.843 2°40.753 11.7 334 17.2 102560 42
2009-09-21 12:49 51°37.676 2°40.643 10.6 337 17.2 102560 40
2009-09-21 12:50 51°37.508 2°40.541 12.1 335 17.2 102570 41
2009-09-21 12:51 51°37.342 2°40.435 11.1 337 17.2 102560 41
2009-09-21 12:52 51°37.175 2°40.333 10.3 336 17.2 102560 41
2009-09-21 12:53 51°37.009 2°40.228 11.5 335 17.2 102560 41
2009-09-21 12:54 51°36.844 2°40.123 11.9 335 17.1 102570 40
2009-09-21 12:55 51°36.678 2°40.015 11.1 336 17.2 102570 42
2009-09-21 12:56 51°36.51 2°39.918 10.4 335 17.2 102560 42
2009-09-21 12:57 51°36.342 2°39.827 10.7 337 17.2 102560 42
2009-09-21 12:58 51°36.173 2°39.74 11.6 336 17.2 102560 42
2009-09-21 12:59 51°36.004 2°39.648 11.6 337 17.2 102560 42
2009-09-21 13:00 51°35.837 2°39.556 11 336 17.2 102560 41
2009-09-21 13:01 51°35.669 2°39.466 10.1 336 17.2 102560 41
2009-09-21 13:02 51°35.502 2°39.374 11.3 335 17.2 102560 43
2009-09-21 13:03 51°35.336 2°39.285 12.2 337 17.2 102570 43
2009-09-21 13:04 51°35.17 2°39.198 11.1 336 17.2 102560 41
2009-09-21 13:05 51°35.004 2°39.111 10.5 338 17.2 102560 41
2009-09-21 13:06 51°34.84 2°39.019 11.6 336 17.2 102560 42
2009-09-21 13:07 51°34.675 2°38.929 11 336 17.2 102560 41
2009-09-21 13:08 51°34.509 2°38.846 9.7 336 17.2 102560 40
2009-09-21 13:09 51°34.347 2°38.751 9.6 335 17.2 102560 42
2009-09-21 13:10 51°34.186 2°38.651 9.9 337 17.3 102560 42
2009-09-21 13:11 51°34.025 2°38.555 11 337 17.3 102560 41
2009-09-21 13:12 51°33.864 2°38.459 9.3 337 17.3 102550 40
2009-09-21 13:13 51°33.703 2°38.363 9.5 337 17.3 102550 41
2009-09-21 13:14 51°33.543 2°38.265 9.8 339 17.3 102550 41
2009-09-21 13:15 51°33.384 2°38.167 10 337 17.3 102550 41
2009-09-21 13:16 51°33.223 2°38.07 9.4 336 17.3 102540 40
2009-09-21 13:17 51°33.062 2°37.975 10.7 339 17.4 102540 41
2009-09-21 13:18 51°32.9 2°37.882 10.3 337 17.4 102540 41
2009-09-21 13:19 51°32.74 2°37.784 10.4 339 17.3 102540 41
2009-09-21 13:20 51°32.577 2°37.695 9.8 340 17.3 102540 41
2009-09-21 13:21 51°32.413 2°37.617 11.4 338 17.3 102540 41
2009-09-21 13:22 51°32.249 2°37.537 9.6 339 17.3 102530 42
2009-09-21 13:23 51°32.086 2°37.454 9.5 337 17.3 102540 40
2009-09-21 13:24 51°31.922 2°37.375 10.2 339 17.3 102530 40
2009-09-21 13:25 51°31.758 2°37.299 9.3 339 17.3 102530 40
2009-09-21 13:26 51°31.594 2°37.219 10.3 341 17.3 102530 40
2009-09-21 13:27 51°31.431 2°37.137 10.6 340 17.3 102520 41
2009-09-21 13:28 51°31.268 2°37.053 9.9 339 17.4 102530 41
2009-09-21 13:29 51°31.104 2°36.975 10.7 338 17.4 102520 41
2009-09-21 13:30 51°30.94 2°36.899 10.4 338 17.4 102530 40
2009-09-21 13:31 51°30.777 2°36.822 10 339 17.4 102520 40
2009-09-21 13:32 51°30.614 2°36.744 9.9 337 17.4 102530 40
2009-09-21 13:33 51°30.451 2°36.667 9.4 339 17.4 102520 40
2009-09-21 13:34 51°30.288 2°36.59 10.7 338 17.4 102520 40
2009-09-21 13:35 51°30.125 2°36.516 9.5 339 17.4 102520 41
2009-09-21 13:36 51°29.96 2°36.462 10.2 340 17.4 102520 40
2009-09-21 13:37 51°29.794 2°36.409 9.4 340 17.4 102520 39
2009-09-21 13:38 51°29.629 2°36.352 9.5 339 17.4 102510 40
2009-09-21 13:39 51°29.463 2°36.299 10 339 17.4 102510 40
2009-09-21 13:40 51°29.297 2°36.245 9.5 337 17.4 102510 40
2009-09-21 13:41 51°29.13 2°36.198 10.3 337 17.4 102510 39
2009-09-21 13:42 51°28.963 2°36.149 9.5 338 17.4 102510 39
2009-09-21 13:43 51°28.798 2°36.1 9.7 337 17.4 102510 39
2009-09-21 13:44 51°28.632 2°36.125 9.7 348 17.4 102510 40
2009-09-21 13:45 51°28.477 2°36.29 8.5 348 17.3 102510 39
2009-09-21 13:46 51°28.338 2°36.509 8.5 346 17.3 102510 38
2009-09-21 13:47 51°28.201 2°36.729 9 348 17.2 102500 38
2009-09-21 13:48 51°28.065 2°36.95 7.7 350 17.2 102510 38
2009-09-21 13:49 51°27.93 2°37.009 8.8 326 17.2 102510 39
2009-09-21 13:50 51°27.919 2°36.78 8.6 320 17.3 102500 39
2009-09-21 13:51 51°27.982 2°36.53 7.5 316 17.4 102500 38
2009-09-21 13:52 51°28.081 2°36.295 8.5 316 17.5 102500 39
2009-09-21 13:53 51°28.178 2°36.06 8.7 318 17.5 102500 38
2009-09-21 13:54 51°28.277 2°35.829 8 22 17.5 102500 37
2009-09-21 13:55 51°28.393 2°35.611 7.9 22 17.5 102500 38
2009-09-21 13:56 51°28.519 2°35.401 7.6 24 17.5 102500 38
2009-09-21 13:57 51°28.599 2°35.181 9.1 324 17.5 102490 39
2009-09-21 13:58 51°28.509 2°35.043 8.7 335 17.5 102490 38
2009-09-21 13:59 51°28.353 2°35.093 8.6 345 17.5 102490 39
2009-09-21 14:00 51°28.212 2°35.277 8.6 351 17.4 102500 39
2009-09-21 14:01 51°28.092 2°35.518 7.7 350 17.3 102500 38
2009-09-21 14:02 51°27.992 2°35.796 7.4 354 17.2 102490 37
2009-09-21 14:03 51°27.906 2°36.093 7.6 354 17.3 102500 38
2009-09-21 14:04 51°27.822 2°36.391 6.7 353 17.2 102500 38
2009-09-21 14:05 51°27.741 2°36.688 7.2 352 17.2 102490 39
2009-09-21 14:06 51°27.659 2°36.986 6.8 350 17.2 102480 37
2009-09-21 14:07 51°27.578 2°37.284 7.2 350 17.2 102490 39
2009-09-21 14:08 51°27.492 2°37.576 6.7 346 17.2 102490 37
2009-09-21 14:09 51°27.4 2°37.863 7.6 347 17.2 102490 38
2009-09-21 14:10 51°27.294 2°38.129 8.1 348 17.2 102480 38
2009-09-21 14:11 51°27.175 2°38.372 8.1 348 17.2 102490 38
2009-09-21 14:12 51°27.042 2°38.587 8.8 345 17.2 102490 37
2009-09-21 14:13 51°26.906 2°38.801 7.8 347 17.2 102490 38
2009-09-21 14:14 51°26.768 2°39.012 7.7 347 17.2 102480 38
2009-09-21 14:15 51°26.631 2°39.225 7.6 346 17.2 102480 39
2009-09-21 14:16 51°26.497 2°39.446 7.4 348 17.2 102480 37
2009-09-21 14:17 51°26.361 2°39.664 8.3 348 17.3 102480 39
2009-09-21 14:18 51°26.225 2°39.884 8.6 345 17.2 102480 38
2009-09-21 14:19 51°26.087 2°40.101 7.9 344 17.2 102480 39
2009-09-21 14:20 51°25.953 2°40.319 8.6 346 17.2 102480 38
2009-09-21 14:21 51°25.823 2°40.54 8.7 347 17.2 102480 38
2009-09-21 14:22 51°25.691 2°40.759 7.6 346 17.2 102480 38
2009-09-21 14:23 51°25.557 2°40.973 8.3 348 17.3 102480 38
2009-09-21 14:24 51°25.423 2°41.186 8.1 346 17.3 102480 38
2009-09-21 14:25 51°25.289 2°41.398 8.4 346 17.3 102480 38
2009-09-21 14:26 51°25.154 2°41.61 8.3 346 17.3 102480 37
2009-09-21 14:27 51°25.02 2°41.822 8.3 347 17.3 102480 38
2009-09-21 14:28 51°24.886 2°42.032 8.3 346 17.3 102480 38
2009-09-21 14:29 51°24.75 2°42.24 7.5 348 17.3 102470 37
2009-09-21 14:30 51°24.615 2°42.451 7.4 348 17.3 102470 38
2009-09-21 14:31 51°24.48 2°42.663 7.9 347 17.3 102470 37
2009-09-21 14:32 51°24.346 2°42.876 7.5 347 17.3 102470 39
2009-09-21 14:33 51°24.21 2°43.092 7.3 345 17.3 102470 39
2009-09-21 14:34 51°24.074 2°43.305 8.1 344 17.4 102470 39
2009-09-21 14:35 51°23.929 2°43.498 7.6 343 17.4 102470 39
2009-09-21 14:36 51°23.782 2°43.689 8.4 345 17.3 102470 38
2009-09-21 14:37 51°23.634 2°43.879 7.7 343 17.3 102470 38
2009-09-21 14:38 51°23.488 2°44.072 8.4 344 17.4 102470 39
2009-09-21 14:39 51°23.342 2°44.265 8.1 345 17.4 102470 40
2009-09-21 14:40 51°23.195 2°44.454 7.9 344 17.3 102470 37
2009-09-21 14:41 51°23.049 2°44.644 7.1 345 17.4 102470 39
2009-09-21 14:42 51°22.901 2°44.832 7.3 344 17.3 102470 40
2009-09-21 14:43 51°22.753 2°45.014 7 345 17.3 102470 39
2009-09-21 14:44 51°22.605 2°45.199 7 342 17.3 102470 39
2009-09-21 14:45 51°22.457 2°45.382 7.9 343 17.3 102470 40
2009-09-21 14:46 51°22.307 2°45.563 7.1 344 17.3 102470 40
2009-09-21 14:47 51°22.159 2°45.747 7.3 344 17.3 102460 40
2009-09-21 14:48 51°22.003 2°45.901 7.1 341 17.3 102460 39
2009-09-21 14:49 51°21.842 2°46.035 8.2 342 17.4 102460 39
2009-09-21 14:50 51°21.682 2°46.176 7.9 343 17.4 102470 39
2009-09-21 14:51 51°21.523 2°46.318 7.5 339 17.4 102460 39
2009-09-21 14:52 51°21.369 2°46.484 6.9 342 17.4 102460 40
2009-09-21 14:53 51°21.217 2°46.656 7.6 342 17.4 102460 40
2009-09-21 14:54 51°21.071 2°46.849 7.7 343 17.4 102470 38
2009-09-21 14:55 51°20.925 2°47.041 6.8 342 17.4 102460 38
2009-09-21 14:56 51°20.777 2°47.235 7.5 344 17.4 102470 39
2009-09-21 14:57 51°20.636 2°47.442 7 345 17.4 102470 39
2009-09-21 14:58 51°20.497 2°47.652 6.6 343 17.4 102460 40
2009-09-21 14:59 51°20.355 2°47.858 6.5 343 17.3 102470 38
2009-09-21 15:00 51°20.216 2°48.068 6.8 344 17.3 102470 38
2009-09-21 15:01 51°20.079 2°48.281 7.2 343 17.4 102470 38
2009-09-21 15:02 51°19.941 2°48.492 6.1 343 17.4 102470 38
2009-09-21 15:03 51°19.807 2°48.707 6.3 342 17.4 102460 39
2009-09-21 15:04 51°19.673 2°48.922 6 342 17.4 102470 41
2009-09-21 15:05 51°19.54 2°49.137 6 344 17.4 102470 38
2009-09-21 15:06 51°19.405 2°49.349 6.1 342 17.4 102470 38
2009-09-21 15:07 51°19.268 2°49.562 6.3 343 17.4 102470 40
2009-09-21 15:08 51°19.131 2°49.772 6.7 343 17.4 102470 38
2009-09-21 15:09 51°18.994 2°49.982 6.5 343 17.4 102470 39
2009-09-21 15:10 51°18.86 2°50.195 5.9 343 17.5 102470 40
2009-09-21 15:11 51°18.726 2°50.409 5.8 343 17.4 102470 38
2009-09-21 15:12 51°18.591 2°50.625 6 343 17.5 102470 40
2009-09-21 15:13 51°18.456 2°50.835 5.7 342 17.5 102470 39
2009-09-21 15:14 51°18.319 2°51.04 6 341 17.5 102470 39
2009-09-21 15:15 51°18.183 2°51.243 5.7 341 17.5 102470 38
2009-09-21 15:16 51°18.041 2°51.427 6.3 341 17.6 102470 38
2009-09-21 15:17 51°17.896 2°51.601 6.3 340 17.6 102470 38
2009-09-21 15:18 51°17.746 2°51.758 5.7 342 17.6 102470 39
2009-09-21 15:19 51°17.596 2°51.912 5.7 339 17.7 102470 41
2009-09-21 15:20 51°17.445 2°52.068 6.4 341 17.7 102470 39
2009-09-21 15:21 51°17.292 2°52.217 5.9 338 17.7 102470 39
2009-09-21 15:22 51°17.135 2°52.357 6.1 337 17.7 102470 41
2009-09-21 15:23 51°16.977 2°52.497 6 336 17.6 102470 40
2009-09-21 15:24 51°16.822 2°52.646 5.3 335 17.6 102470 41
2009-09-21 15:25 51°16.668 2°52.797 5.7 336 17.6 102470 42
2009-09-21 15:26 51°16.512 2°52.949 5.4 337 17.5 102470 41
2009-09-21 15:27 51°16.357 2°53.099 5.7 336 17.5 102460 41
2009-09-21 15:28 51°16.2 2°53.248 5.5 336 17.5 102460 42
2009-09-21 15:29 51°16.043 2°53.398 5.1 339 17.5 102460 40
2009-09-21 15:30 51°15.883 2°53.544 5.5 335 17.5 102460 40
2009-09-21 15:31 51°15.724 2°53.694 5.8 337 17.5 102460 40
2009-09-21 15:32 51°15.593 2°53.82 3.2 340 17.5 102460 41
2009-09-21 15:33 51°15.512 2°53.902 2.6 342 17.6 102460 42
2009-09-21 15:34 51°15.441 2°53.984 0.7 342 17.6 102460 41
2009-09-21 15:35 51°15.351 2°54.08 3.7 338 17.6 102460 42
2009-09-21 15:36 51°15.251 2°54.186 4.1 336 17.7 102470 40
2009-09-21 15:37 51°15.141 2°54.292 4 338 17.7 102470 41
2009-09-21 15:38 51°15.029 2°54.399 3.6 338 17.7 102470 42
2009-09-21 15:39 51°14.901 2°54.522 4.8 337 17.8 102470 41
2009-09-21 15:40 51°14.755 2°54.66 5.5 336 17.8 102470 39
2009-09-21 15:41 51°14.598 2°54.806 5.4 335 17.8 102470 40
2009-09-21 15:42 51°14.442 2°54.964 5.1 336 17.7 102460 40
2009-09-21 15:43 51°14.309 2°55.168 5.3 337 17.7 102470 39
2009-09-21 15:44 51°14.19 2°55.357 3.7 340 17.8 102470 40
2009-09-21 15:45 51°14.076 2°55.452 2.7 338 17.7 102470 38
2009-09-21 15:46 51°13.966 2°55.529 4.4 349 17.8 102470 40
2009-09-21 15:47 51°13.865 2°55.601 4.2 344 17.9 102470 38
2009-09-21 15:48 51°13.775 2°55.678 2.8 349 18 102470 37
2009-09-21 15:49 51°13.72 2°55.778 -999 347 18.2 102470 38
2009-09-21 15:50 51°13.683 2°55.871 -999 39 18.3 102470 38
2009-09-21 15:51 51°13.668 2°55.941 -999 79 18.6 102470 38
2009-09-21 15:52 51°13.663 2°55.958 0.1 79 18.7 102470 37
2009-09-21 15:53 51°13.662 2°55.958 -999 79 18.8 102460 37
2009-09-21 15:54 51°13.663 2°55.958 2.5 26 18.7 102460 37